Time;durP1;ratioP1;P1;durP2;ratioP2;P2;SDS_P1;SDS_P2;PMS_P1;PMS_P2;Temp;Humidity;BMP_temperature;BMP_pressure;BME280_temperature;BME280_humidity;BME280_pressure;Samples;Min_cycle;Max_cycle;Signal;HPM_P1;HPM_P2
2021/11/06 00:00:53;;;;;;;11.45;9.98;;;;;;;;;;2079551;28;20188;-58
2021/11/06 00:01:54;;;;;;;11.65;9.18;;;;;;;;;;2081130;28;20208;-58
2021/11/06 00:02:54;;;;;;;15.93;9.05;;;;;;;;;;2080589;28;20586;-57
2021/11/06 00:03:54;;;;;;;14.63;9.65;;;;;;;;;;2073061;28;20611;-57
2021/11/06 00:04:54;;;;;;;15.00;9.93;;;;;;;;;;2081243;28;20176;-58
2021/11/06 00:05:55;;;;;;;11.73;9.13;;;;;;;;;;2081405;28;20550;-56
2021/11/06 00:06:55;;;;;;;10.52;9.23;;;;;;;;;;2079420;28;20191;-57
2021/11/06 00:07:55;;;;;;;9.82;8.57;;;;;;;;;;2080881;28;20219;-56
2021/11/06 00:08:55;;;;;;;13.00;8.50;;;;;;;;;;2079512;28;20173;-57
2021/11/06 00:09:56;;;;;;;10.45;9.13;;;;;;;;;;2079415;28;20637;-55
2021/11/06 00:10:56;;;;;;;12.43;8.07;;;;;;;;;;2071994;28;20189;-54
2021/11/06 00:11:56;;;;;;;10.90;7.50;;;;;;;;;;2081186;28;20183;-55
2021/11/06 00:12:57;;;;;;;10.32;8.65;;;;;;;;;;2078083;28;20568;-57
2021/11/06 00:13:57;;;;;;;15.95;9.65;;;;;;;;;;2081261;28;20573;-57
2021/11/06 00:14:57;;;;;;;9.88;8.73;;;;;;;;;;2080871;28;20188;-56
2021/11/06 00:15:58;;;;;;;13.10;8.90;;;;;;;;;;2084281;28;20224;-57
2021/11/06 00:16:59;;;;;;;14.20;8.13;;;;;;;;;;2082223;28;20170;-57
2021/11/06 00:17:59;;;;;;;9.27;7.95;;;;;;;;;;2080986;28;20702;-54
2021/11/06 00:18:59;;;;;;;9.45;7.97;;;;;;;;;;2072386;28;20179;-56
2021/11/06 00:19:59;;;;;;;9.93;7.78;;;;;;;;;;2079634;28;20282;-56
2021/11/06 00:21:00;;;;;;;13.10;8.32;;;;;;;;;;2079110;28;20576;-58
2021/11/06 00:22:01;;;;;;;14.85;7.75;;;;;;;;;;2080481;28;20184;-54
2021/11/06 00:23:02;;;;;;;12.05;8.30;;;;;;;;;;2080601;28;20205;-56
2021/11/06 00:24:02;;;;;;;8.05;7.25;;;;;;;;;;2082215;28;20611;-56
2021/11/06 00:25:04;;;;;;;12.95;8.07;;;;;;;;;;2079656;28;20199;-54
2021/11/06 00:26:05;;;;;;;8.68;7.43;;;;;;;;;;2079208;28;20680;-57
2021/11/06 00:27:05;;;;;;;13.13;8.10;;;;;;;;;;2077658;28;20253;-55
2021/11/06 00:28:05;;;;;;;12.18;8.23;;;;;;;;;;2080219;28;20188;-56
2021/11/06 00:29:06;;;;;;;9.35;7.30;;;;;;;;;;2078382;28;20547;-54
2021/11/06 00:30:07;;;;;;;8.13;7.38;;;;;;;;;;2080853;28;20553;-56
2021/11/06 00:31:07;;;;;;;10.73;7.65;;;;;;;;;;2079846;28;20172;-56
2021/11/06 00:32:08;;;;;;;8.23;7.30;;;;;;;;;;2080217;28;20169;-57
2021/11/06 00:33:08;;;;;;;11.38;8.00;;;;;;;;;;2078782;28;20176;-55
2021/11/06 00:34:09;;;;;;;11.48;8.07;;;;;;;;;;2082213;28;20216;-57
2021/11/06 00:35:09;;;;;;;8.27;7.32;;;;;;;;;;2082350;28;20176;-58
2021/11/06 00:36:09;;;;;;;8.63;7.50;;;;;;;;;;2074999;28;20173;-54
2021/11/06 00:37:10;;;;;;;8.87;7.97;;;;;;;;;;2064534;28;20216;-57
2021/11/06 00:38:10;;;;;;;11.77;8.05;;;;;;;;;;2072665;28;20211;-55
2021/11/06 00:39:11;;;;;;;10.27;7.20;;;;;;;;;;2080995;28;20191;-56
2021/11/06 00:40:12;;;;;;;9.77;7.55;;;;;;;;;;2081874;28;20173;-56
2021/11/06 00:41:12;;;;;;;10.52;7.13;;;;;;;;;;2081096;28;20572;-55
2021/11/06 00:42:13;;;;;;;11.45;7.43;;;;;;;;;;2080887;28;20267;-55
2021/11/06 00:43:13;;;;;;;8.43;7.57;;;;;;;;;;2083433;28;20167;-57
2021/11/06 00:44:13;;;;;;;10.40;8.13;;;;;;;;;;2081593;28;20185;-56
2021/11/06 00:45:14;;;;;;;10.48;7.35;;;;;;;;;;2081224;28;20172;-57
2021/11/06 00:46:14;;;;;;;8.80;6.80;;;;;;;;;;2080644;28;20199;-54
2021/11/06 00:47:15;;;;;;;8.77;7.00;;;;;;;;;;2081201;28;20234;-53
2021/11/06 00:48:15;;;;;;;8.57;7.30;;;;;;;;;;2081471;28;20164;-56
2021/11/06 00:49:15;;;;;;;11.07;7.40;;;;;;;;;;2080495;28;20176;-56
2021/11/06 00:50:16;;;;;;;7.97;7.18;;;;;;;;;;2080242;28;20176;-56
2021/11/06 00:51:16;;;;;;;8.90;8.00;;;;;;;;;;2080757;28;20259;-56
2021/11/06 00:52:17;;;;;;;10.17;7.90;;;;;;;;;;2081403;28;20247;-56
2021/11/06 00:53:17;;;;;;;7.05;6.35;;;;;;;;;;2080070;28;20176;-55
2021/11/06 00:54:17;;;;;;;7.45;6.82;;;;;;;;;;2080750;28;20180;-53
2021/11/06 00:55:18;;;;;;;10.05;8.40;;;;;;;;;;2079144;28;20168;-56
2021/11/06 00:56:18;;;;;;;9.83;7.13;;;;;;;;;;2081402;28;20176;-56
2021/11/06 00:57:18;;;;;;;9.85;7.07;;;;;;;;;;2080554;28;20591;-57
2021/11/06 00:58:18;;;;;;;9.18;7.82;;;;;;;;;;2080173;28;20697;-57
2021/11/06 00:59:19;;;;;;;11.33;7.57;;;;;;;;;;2078907;28;20216;-55
2021/11/06 01:00:19;;;;;;;10.90;7.18;;;;;;;;;;2079684;28;20194;-56
2021/11/06 01:01:20;;;;;;;7.85;7.07;;;;;;;;;;2079265;28;20191;-58
2021/11/06 01:02:20;;;;;;;11.93;8.32;;;;;;;;;;2080787;28;20213;-57
2021/11/06 01:03:20;;;;;;;9.32;7.93;;;;;;;;;;2078964;28;20560;-55
2021/11/06 01:04:21;;;;;;;9.85;8.27;;;;;;;;;;2079054;28;20208;-57
2021/11/06 01:05:21;;;;;;;13.68;8.05;;;;;;;;;;2077394;28;20179;-57
2021/11/06 01:06:23;;;;;;;9.48;7.70;;;;;;;;;;2080729;28;20193;-57
2021/11/06 01:07:23;;;;;;;9.77;8.32;;;;;;;;;;2080134;28;20710;-57
2021/11/06 01:08:23;;;;;;;11.63;8.30;;;;;;;;;;2081069;28;20180;-56
2021/11/06 01:09:23;;;;;;;9.65;7.00;;;;;;;;;;2077601;28;20230;-55
2021/11/06 01:10:23;;;;;;;9.13;7.83;;;;;;;;;;2080893;28;20222;-57
2021/11/06 01:11:24;;;;;;;8.82;7.68;;;;;;;;;;2073595;28;20172;-57
2021/11/06 01:12:24;;;;;;;8.87;7.63;;;;;;;;;;2080862;28;20182;-57
2021/11/06 01:13:24;;;;;;;10.43;8.73;;;;;;;;;;2072889;28;20357;-56
2021/11/06 01:14:25;;;;;;;16.35;9.10;;;;;;;;;;2080824;28;20184;-56
2021/11/06 01:15:25;;;;;;;11.55;8.63;;;;;;;;;;2080514;28;20629;-55
2021/11/06 01:16:25;;;;;;;11.80;9.10;;;;;;;;;;2079936;28;20667;-55
2021/11/06 01:17:26;;;;;;;11.30;8.43;;;;;;;;;;2080321;28;20210;-56
2021/11/06 01:18:26;;;;;;;11.82;8.90;;;;;;;;;;2078833;28;20195;-55
2021/11/06 01:19:26;;;;;;;10.38;8.85;;;;;;;;;;2079320;28;20184;-53
2021/11/06 01:20:26;;;;;;;9.20;8.23;;;;;;;;;;2083354;28;20204;-52
2021/11/06 01:21:27;;;;;;;15.02;8.85;;;;;;;;;;2080622;28;20184;-55
2021/11/06 01:22:27;;;;;;;13.48;9.63;;;;;;;;;;2081402;28;20593;-57
2021/11/06 01:23:27;;;;;;;10.68;8.95;;;;;;;;;;2078916;28;20740;-56
2021/11/06 01:24:28;;;;;;;11.00;9.88;;;;;;;;;;2081645;28;20246;-55
2021/11/06 01:25:28;;;;;;;13.47;9.87;;;;;;;;;;2079029;28;20191;-55
2021/11/06 01:26:28;;;;;;;12.20;9.60;;;;;;;;;;2081530;28;20184;-54
2021/11/06 01:27:29;;;;;;;10.90;9.33;;;;;;;;;;2080097;28;20643;-54
2021/11/06 01:28:29;;;;;;;10.50;9.40;;;;;;;;;;2080766;28;20180;-53
2021/11/06 01:29:30;;;;;;;13.90;10.47;;;;;;;;;;2080365;28;20192;-54
2021/11/06 01:30:30;;;;;;;13.60;9.67;;;;;;;;;;2080468;28;20184;-56
2021/11/06 01:31:30;;;;;;;16.87;11.13;;;;;;;;;;2080106;28;20267;-53
2021/11/06 01:32:31;;;;;;;11.65;9.57;;;;;;;;;;2081573;28;20203;-55
2021/11/06 01:33:31;;;;;;;14.37;10.77;;;;;;;;;;2080506;28;20238;-56
2021/11/06 01:34:31;;;;;;;12.45;11.20;;;;;;;;;;2081229;28;20173;-56
2021/11/06 01:35:32;;;;;;;14.43;11.20;;;;;;;;;;2080773;28;20204;-54
2021/11/06 01:36:32;;;;;;;16.07;11.30;;;;;;;;;;2081652;28;20184;-56
2021/11/06 01:37:32;;;;;;;17.17;11.93;;;;;;;;;;2079472;28;20695;-54
2021/11/06 01:38:33;;;;;;;13.75;11.05;;;;;;;;;;2081199;28;20176;-56
2021/11/06 01:39:33;;;;;;;17.30;11.57;;;;;;;;;;2080295;28;20193;-58
2021/11/06 01:40:33;;;;;;;15.90;12.52;;;;;;;;;;2082228;28;20672;-51
2021/11/06 01:41:34;;;;;;;15.53;12.83;;;;;;;;;;2080009;28;20609;-54
2021/11/06 01:42:34;;;;;;;13.63;12.15;;;;;;;;;;2079911;28;20195;-54
2021/11/06 01:43:35;;;;;;;15.45;13.43;;;;;;;;;;2079645;28;20559;-53
2021/11/06 01:44:35;;;;;;;17.98;12.57;;;;;;;;;;2080614;28;20656;-55
2021/11/06 01:45:35;;;;;;;15.77;14.03;;;;;;;;;;2080545;28;20251;-57
2021/11/06 01:46:36;;;;;;;16.13;11.67;;;;;;;;;;2080828;28;20205;-55
2021/11/06 01:47:36;;;;;;;18.43;12.13;;;;;;;;;;2078347;28;20185;-55
2021/11/06 01:48:36;;;;;;;14.23;12.35;;;;;;;;;;2080721;28;20589;-56
2021/11/06 01:49:37;;;;;;;13.00;11.53;;;;;;;;;;2081469;28;20609;-56
2021/11/06 01:50:37;;;;;;;14.47;11.73;;;;;;;;;;2079498;28;20645;-55
2021/11/06 01:51:38;;;;;;;17.53;13.07;;;;;;;;;;2081403;28;20543;-53
2021/11/06 01:52:38;;;;;;;16.33;12.77;;;;;;;;;;2080324;28;20262;-56
2021/11/06 01:53:38;;;;;;;14.53;13.03;;;;;;;;;;2080063;28;20164;-54
2021/11/06 01:54:39;;;;;;;16.33;13.87;;;;;;;;;;2080245;28;20224;-56
2021/11/06 01:55:40;;;;;;;15.80;12.03;;;;;;;;;;2079668;28;20517;-56
2021/11/06 01:56:42;;;;;;;18.38;13.35;;;;;;;;;;2080860;28;20260;-56
2021/11/06 01:57:42;;;;;;;14.87;13.47;;;;;;;;;;2081345;28;20589;-55
2021/11/06 01:58:43;;;;;;;14.45;12.93;;;;;;;;;;2080852;28;20178;-54
2021/11/06 01:59:45;;;;;;;14.70;13.00;;;;;;;;;;2079941;28;20661;-54
2021/11/06 02:00:45;;;;;;;19.73;13.73;;;;;;;;;;2079903;28;20172;-56
2021/11/06 02:01:46;;;;;;;15.13;13.63;;;;;;;;;;2079186;28;20616;-57
2021/11/06 02:02:46;;;;;;;14.87;13.40;;;;;;;;;;2080378;28;20267;-57
2021/11/06 02:03:47;;;;;;;16.20;13.97;;;;;;;;;;2079107;28;20188;-56
2021/11/06 02:04:47;;;;;;;16.43;14.73;;;;;;;;;;2081580;28;20207;-56
2021/11/06 02:05:47;;;;;;;16.53;13.13;;;;;;;;;;2079380;28;20225;-56
2021/11/06 02:06:48;;;;;;;15.73;14.03;;;;;;;;;;2080560;28;20172;-56
2021/11/06 02:07:48;;;;;;;14.27;11.93;;;;;;;;;;2077719;28;20196;-61
2021/11/06 02:08:48;;;;;;;15.43;13.93;;;;;;;;;;2080718;28;20268;-56
2021/11/06 02:09:49;;;;;;;13.60;11.50;;;;;;;;;;2078345;28;20182;-55
2021/11/06 02:10:49;;;;;;;15.30;12.93;;;;;;;;;;2071850;28;20256;-55
2021/11/06 02:11:49;;;;;;;14.35;13.00;;;;;;;;;;2072658;28;20272;-54
2021/11/06 02:12:50;;;;;;;15.73;13.00;;;;;;;;;;2078384;28;20225;-56
2021/11/06 02:13:50;;;;;;;14.53;12.17;;;;;;;;;;2078285;28;20177;-56
2021/11/06 02:14:50;;;;;;;15.13;12.35;;;;;;;;;;2081063;28;20180;-55
2021/11/06 02:15:51;;;;;;;14.13;12.73;;;;;;;;;;2078480;28;20627;-56
2021/11/06 02:16:52;;;;;;;13.53;12.03;;;;;;;;;;2080483;28;20179;-56
2021/11/06 02:17:52;;;;;;;16.60;11.83;;;;;;;;;;2078968;28;20180;-53
2021/11/06 02:18:53;;;;;;;13.50;11.57;;;;;;;;;;2080205;28;20196;-56
2021/11/06 02:19:53;;;;;;;18.07;13.10;;;;;;;;;;2076684;28;20170;-53
2021/11/06 02:21:04;;;;;;;13.07;11.73;;;;;;;;;;2080677;28;20537;-56
2021/11/06 02:22:05;;;;;;;14.80;11.27;;;;;;;;;;2077057;28;20184;-55
2021/11/06 02:23:05;;;;;;;13.43;11.77;;;;;;;;;;2081002;28;20272;-56
2021/11/06 02:24:06;;;;;;;15.23;12.13;;;;;;;;;;2077039;28;20166;-53
2021/11/06 02:25:07;;;;;;;18.37;11.87;;;;;;;;;;2071650;28;20259;-56
2021/11/06 02:26:08;;;;;;;12.67;11.37;;;;;;;;;;2068938;28;20590;-55
2021/11/06 02:27:09;;;;;;;13.87;12.47;;;;;;;;;;2073888;28;20902;-53
2021/11/06 02:28:09;;;;;;;13.93;11.23;;;;;;;;;;2077375;28;20230;-52
2021/11/06 02:29:10;;;;;;;13.40;12.00;;;;;;;;;;2080874;28;20758;-55
2021/11/06 02:30:11;;;;;;;12.20;10.87;;;;;;;;;;2076618;28;20323;-55
2021/11/06 02:31:12;;;;;;;13.90;11.03;;;;;;;;;;2080453;28;20206;-56
2021/11/06 02:32:12;;;;;;;12.40;10.60;;;;;;;;;;2070455;28;20585;-54
2021/11/06 02:33:13;;;;;;;16.30;12.63;;;;;;;;;;2080121;28;20651;-56
2021/11/06 02:34:13;;;;;;;12.40;11.30;;;;;;;;;;2077713;28;20168;-56
2021/11/06 02:35:13;;;;;;;12.23;10.90;;;;;;;;;;2080166;28;20180;-54
2021/11/06 02:36:14;;;;;;;14.93;11.00;;;;;;;;;;2079850;28;20677;-57
2021/11/06 02:37:15;;;;;;;15.77;11.40;;;;;;;;;;2080384;28;20211;-56
2021/11/06 02:38:15;;;;;;;18.92;12.50;;;;;;;;;;2080239;28;20254;-57
2021/11/06 02:39:16;;;;;;;12.00;10.68;;;;;;;;;;2078164;28;20185;-56
2021/11/06 02:40:16;;;;;;;12.32;10.75;;;;;;;;;;2079245;28;20208;-56
2021/11/06 02:41:16;;;;;;;16.77;12.47;;;;;;;;;;2072429;28;20570;-58
2021/11/06 02:42:17;;;;;;;12.45;10.40;;;;;;;;;;2069225;28;20165;-57
2021/11/06 02:43:17;;;;;;;12.80;10.93;;;;;;;;;;2079984;28;20709;-59
2021/11/06 02:44:17;;;;;;;12.17;10.87;;;;;;;;;;2077318;28;20259;-55
2021/11/06 02:45:20;;;;;;;12.85;10.93;;;;;;;;;;2079714;28;20617;-55
2021/11/06 02:46:20;;;;;;;11.67;10.50;;;;;;;;;;2077632;28;20723;-55
2021/11/06 02:47:20;;;;;;;12.47;11.03;;;;;;;;;;2080116;28;20307;-58
2021/11/06 02:48:21;;;;;;;11.37;10.17;;;;;;;;;;2078854;28;20264;-57
2021/11/06 02:49:21;;;;;;;12.80;11.27;;;;;;;;;;2080377;28;20165;-56
2021/11/06 02:50:21;;;;;;;10.63;9.50;;;;;;;;;;2081077;28;20229;-57
2021/11/06 02:51:21;;;;;;;13.60;9.60;;;;;;;;;;2081318;28;20203;-54
2021/11/06 02:52:22;;;;;;;13.37;10.97;;;;;;;;;;2079113;28;20176;-57
2021/11/06 02:53:22;;;;;;;14.55;10.85;;;;;;;;;;2080760;28;20263;-58
2021/11/06 02:54:22;;;;;;;14.60;10.55;;;;;;;;;;2077866;28;20230;-57
2021/11/06 02:55:23;;;;;;;11.38;10.27;;;;;;;;;;2080927;28;20267;-58
2021/11/06 02:56:24;;;;;;;13.13;11.20;;;;;;;;;;2078941;28;20176;-54
2021/11/06 02:57:25;;;;;;;11.50;10.30;;;;;;;;;;2080945;28;20203;-59
2021/11/06 02:58:25;;;;;;;12.20;10.75;;;;;;;;;;2074640;28;20169;-54
2021/11/06 02:59:25;;;;;;;12.90;11.20;;;;;;;;;;2080266;28;20168;-54
2021/11/06 03:00:30;;;;;;;12.50;10.60;;;;;;;;;;2076809;28;20623;-55
2021/11/06 03:01:30;;;;;;;13.82;11.10;;;;;;;;;;2080325;28;20176;-56
2021/11/06 03:02:30;;;;;;;10.55;9.07;;;;;;;;;;2079076;28;20675;-56
2021/11/06 03:03:31;;;;;;;13.03;11.00;;;;;;;;;;2079582;28;20239;-56
2021/11/06 03:04:38;;;;;;;12.15;10.65;;;;;;;;;;2078794;28;20516;-54
2021/11/06 03:05:38;;;;;;;12.75;11.02;;;;;;;;;;2080510;28;20172;-57
2021/11/06 03:06:38;;;;;;;11.52;10.43;;;;;;;;;;2078980;28;20208;-55
2021/11/06 03:07:39;;;;;;;12.43;11.15;;;;;;;;;;2080344;28;20188;-59
2021/11/06 03:08:39;;;;;;;12.85;11.55;;;;;;;;;;2079940;28;20192;-56
2021/11/06 03:09:41;;;;;;;12.45;10.68;;;;;;;;;;2078645;28;20184;-57
2021/11/06 03:10:42;;;;;;;13.15;11.80;;;;;;;;;;2072638;28;20177;-56
2021/11/06 03:11:42;;;;;;;16.87;11.47;;;;;;;;;;2077295;28;20704;-53
2021/11/06 03:12:44;;;;;;;13.02;11.30;;;;;;;;;;2074316;28;20556;-54
2021/11/06 03:13:44;;;;;;;13.52;11.50;;;;;;;;;;2077363;28;20178;-56
2021/11/06 03:14:46;;;;;;;13.00;11.68;;;;;;;;;;2079574;28;20175;-56
2021/11/06 03:15:46;;;;;;;12.73;11.43;;;;;;;;;;2078957;28;20183;-58
2021/11/06 03:16:47;;;;;;;15.10;12.50;;;;;;;;;;2080088;28;20656;-55
2021/11/06 03:17:47;;;;;;;12.63;11.30;;;;;;;;;;2079794;28;20180;-58
2021/11/06 03:18:47;;;;;;;13.60;12.18;;;;;;;;;;2080793;28;20176;-57
2021/11/06 03:19:48;;;;;;;15.50;12.10;;;;;;;;;;2074505;28;20185;-57
2021/11/06 03:20:48;;;;;;;13.90;11.68;;;;;;;;;;2079993;28;20592;-57
2021/11/06 03:21:49;;;;;;;15.43;12.67;;;;;;;;;;2079800;28;20271;-56
2021/11/06 03:22:51;;;;;;;13.40;12.10;;;;;;;;;;2081284;28;20636;-54
2021/11/06 03:23:51;;;;;;;13.05;11.88;;;;;;;;;;2080852;28;20172;-54
2021/11/06 03:24:52;;;;;;;13.32;11.93;;;;;;;;;;2079998;28;20211;-55
2021/11/06 03:25:52;;;;;;;13.70;12.15;;;;;;;;;;2080603;28;20245;-56
2021/11/06 03:26:52;;;;;;;13.75;12.32;;;;;;;;;;2079842;28;20230;-59
2021/11/06 03:27:52;;;;;;;15.10;13.60;;;;;;;;;;2080177;28;20175;-62
2021/11/06 03:28:53;;;;;;;16.50;13.50;;;;;;;;;;2073469;28;20911;-56
2021/11/06 03:29:53;;;;;;;15.10;13.50;;;;;;;;;;2080403;28;20188;-59
2021/11/06 03:30:53;;;;;;;17.33;13.10;;;;;;;;;;2073197;28;20260;-56
2021/11/06 03:31:54;;;;;;;17.57;13.77;;;;;;;;;;2080445;28;20176;-56
2021/11/06 03:32:54;;;;;;;14.43;12.93;;;;;;;;;;2080625;28;20183;-57
2021/11/06 03:33:55;;;;;;;16.67;13.10;;;;;;;;;;2080048;28;20176;-59
2021/11/06 03:34:55;;;;;;;15.02;13.43;;;;;;;;;;2080032;28;20206;-55
2021/11/06 03:35:55;;;;;;;16.08;14.20;;;;;;;;;;2079071;28;20176;-57
2021/11/06 03:36:56;;;;;;;16.50;14.60;;;;;;;;;;2078656;28;20191;-57
2021/11/06 03:37:57;;;;;;;16.65;14.93;;;;;;;;;;2079122;28;20260;-56
2021/11/06 03:38:57;;;;;;;18.30;15.13;;;;;;;;;;2079903;28;20649;-56
2021/11/06 03:39:57;;;;;;;15.20;13.65;;;;;;;;;;2080103;28;20183;-56
2021/11/06 03:40:58;;;;;;;16.00;13.68;;;;;;;;;;2079056;28;20172;-54
2021/11/06 03:41:58;;;;;;;15.70;14.00;;;;;;;;;;2080267;28;20168;-56
2021/11/06 03:42:58;;;;;;;19.27;13.93;;;;;;;;;;2081263;28;20176;-58
2021/11/06 03:43:59;;;;;;;16.75;14.23;;;;;;;;;;2080210;28;20683;-52
2021/11/06 03:44:59;;;;;;;18.52;14.98;;;;;;;;;;2079317;28;20176;-54
2021/11/06 03:46:00;;;;;;;16.15;14.52;;;;;;;;;;2078492;28;20180;-57
2021/11/06 03:47:00;;;;;;;16.63;14.85;;;;;;;;;;2079896;28;20645;-53
2021/11/06 03:48:01;;;;;;;22.10;16.30;;;;;;;;;;2080619;28;20168;-55
2021/11/06 03:49:01;;;;;;;16.23;14.52;;;;;;;;;;2074168;28;20557;-56
2021/11/06 03:50:03;;;;;;;18.70;16.15;;;;;;;;;;2079587;28;20194;-59
2021/11/06 03:51:03;;;;;;;16.80;14.83;;;;;;;;;;2074381;28;20212;-54
2021/11/06 03:52:04;;;;;;;19.33;16.38;;;;;;;;;;2079893;28;20184;-55
2021/11/06 03:53:04;;;;;;;19.08;16.10;;;;;;;;;;2073008;28;20188;-54
2021/11/06 03:54:04;;;;;;;17.88;16.00;;;;;;;;;;2078899;28;20682;-56
2021/11/06 03:55:05;;;;;;;19.55;16.63;;;;;;;;;;2078694;28;20214;-56
2021/11/06 03:56:06;;;;;;;23.08;16.20;;;;;;;;;;2079868;28;20525;-55
2021/11/06 03:57:06;;;;;;;19.10;15.52;;;;;;;;;;2076830;28;20222;-58
2021/11/06 03:58:06;;;;;;;17.40;14.25;;;;;;;;;;2079327;28;20181;-55
2021/11/06 03:59:06;;;;;;;19.92;16.05;;;;;;;;;;2078342;28;20222;-56
2021/11/06 04:00:07;;;;;;;17.17;15.43;;;;;;;;;;2079763;28;20295;-56
2021/11/06 04:01:07;;;;;;;18.63;16.55;;;;;;;;;;2075208;28;20265;-55
2021/11/06 04:02:08;;;;;;;17.77;15.93;;;;;;;;;;2078241;28;20173;-58
2021/11/06 04:03:08;;;;;;;18.03;15.90;;;;;;;;;;2075824;28;20263;-55
2021/11/06 04:04:08;;;;;;;16.95;14.32;;;;;;;;;;2079629;28;20203;-57
2021/11/06 04:05:09;;;;;;;20.98;16.00;;;;;;;;;;2080033;28;20173;-59
2021/11/06 04:06:09;;;;;;;19.47;15.17;;;;;;;;;;2079850;28;20232;-57
2021/11/06 04:07:10;;;;;;;17.33;14.52;;;;;;;;;;2075505;28;20653;-58
2021/11/06 04:08:10;;;;;;;20.08;15.57;;;;;;;;;;2079367;28;20181;-58
2021/11/06 04:09:10;;;;;;;20.03;15.10;;;;;;;;;;2080327;28;20255;-56
2021/11/06 04:10:11;;;;;;;20.50;16.00;;;;;;;;;;2080514;28;20180;-56
2021/11/06 04:11:11;;;;;;;18.20;16.38;;;;;;;;;;2076823;28;20177;-55
2021/11/06 04:12:12;;;;;;;16.30;14.67;;;;;;;;;;2080881;28;20257;-56
2021/11/06 04:13:13;;;;;;;21.02;16.20;;;;;;;;;;2070219;28;20173;-54
2021/11/06 04:14:14;;;;;;;18.00;16.20;;;;;;;;;;2065162;28;20169;-55
2021/11/06 04:15:15;;;;;;;20.93;17.07;;;;;;;;;;2080520;28;20177;-55
2021/11/06 04:16:15;;;;;;;20.03;16.60;;;;;;;;;;2081407;28;20193;-56
2021/11/06 04:17:15;;;;;;;18.90;17.10;;;;;;;;;;2078656;28;20330;-57
2021/11/06 04:18:16;;;;;;;21.35;17.98;;;;;;;;;;2080241;28;20641;-59
2021/11/06 04:19:16;;;;;;;23.20;18.23;;;;;;;;;;2077743;28;20184;-53
2021/11/06 04:20:16;;;;;;;19.53;17.27;;;;;;;;;;2079694;28;20188;-55
2021/11/06 04:21:17;;;;;;;19.60;17.60;;;;;;;;;;2080521;28;20629;-57
2021/11/06 04:22:17;;;;;;;19.55;17.45;;;;;;;;;;2081533;28;20173;-58
2021/11/06 04:23:17;;;;;;;21.23;17.00;;;;;;;;;;2081431;28;20215;-57
2021/11/06 04:24:18;;;;;;;18.20;16.30;;;;;;;;;;2077232;28;20187;-57
2021/11/06 04:25:18;;;;;;;20.80;17.23;;;;;;;;;;2079348;28;20169;-57
2021/11/06 04:26:19;;;;;;;18.73;16.70;;;;;;;;;;2080855;28;20259;-56
2021/11/06 04:27:19;;;;;;;18.07;15.73;;;;;;;;;;2080905;28;20196;-55
2021/11/06 04:28:19;;;;;;;21.80;18.33;;;;;;;;;;2082211;28;20578;-57
2021/11/06 04:29:20;;;;;;;21.07;18.83;;;;;;;;;;2079465;28;20495;-56
2021/11/06 04:30:20;;;;;;;20.50;16.70;;;;;;;;;;2081681;28;20751;-56
2021/11/06 04:31:21;;;;;;;20.35;18.08;;;;;;;;;;2079155;28;20173;-55
2021/11/06 04:32:22;;;;;;;19.53;17.63;;;;;;;;;;2081331;28;20645;-54
2021/11/06 04:33:22;;;;;;;22.73;17.10;;;;;;;;;;2078074;28;20177;-55
2021/11/06 04:34:23;;;;;;;19.67;17.23;;;;;;;;;;2081648;28;20175;-57
2021/11/06 04:35:23;;;;;;;19.92;17.42;;;;;;;;;;2073217;28;20188;-55
2021/11/06 04:36:24;;;;;;;23.67;18.20;;;;;;;;;;2081290;28;20172;-55
2021/11/06 04:37:24;;;;;;;24.77;20.02;;;;;;;;;;2083729;28;20219;-57
2021/11/06 04:38:24;;;;;;;25.40;19.15;;;;;;;;;;2081804;28;20180;-54
2021/11/06 04:39:24;;;;;;;22.60;19.03;;;;;;;;;;2080690;28;20195;-58
2021/11/06 04:40:25;;;;;;;24.43;19.80;;;;;;;;;;2079743;28;20200;-56
2021/11/06 04:41:25;;;;;;;23.23;20.27;;;;;;;;;;2076912;28;20177;-54
2021/11/06 04:42:26;;;;;;;25.77;22.02;;;;;;;;;;2081412;28;20180;-53
2021/11/06 04:43:26;;;;;;;26.83;21.60;;;;;;;;;;2080160;28;20223;-56
2021/11/06 04:44:27;;;;;;;28.80;22.13;;;;;;;;;;2081501;28;21250;-56
2021/11/06 04:45:27;;;;;;;23.52;20.70;;;;;;;;;;2080950;28;20701;-55
2021/11/06 04:46:27;;;;;;;25.13;21.48;;;;;;;;;;2082089;28;20204;-55
2021/11/06 04:47:28;;;;;;;26.75;20.15;;;;;;;;;;2080586;28;20203;-55
2021/11/06 04:48:28;;;;;;;26.27;20.67;;;;;;;;;;2081132;28;20179;-55
2021/11/06 04:49:28;;;;;;;23.37;21.03;;;;;;;;;;2081176;28;20188;-54
2021/11/06 04:50:28;;;;;;;28.23;22.50;;;;;;;;;;2080627;28;20180;-56
2021/11/06 04:51:29;;;;;;;25.10;21.93;;;;;;;;;;2082159;28;20180;-55
2021/11/06 04:52:29;;;;;;;33.40;23.10;;;;;;;;;;2080804;28;20187;-57
2021/11/06 04:53:30;;;;;;;28.48;22.33;;;;;;;;;;2073209;28;20205;-54
2021/11/06 04:54:30;;;;;;;28.10;21.83;;;;;;;;;;2081543;28;20180;-56
2021/11/06 04:55:30;;;;;;;24.02;20.25;;;;;;;;;;2080678;28;20179;-58
2021/11/06 04:56:31;;;;;;;31.02;21.88;;;;;;;;;;2077235;28;20690;-57
2021/11/06 04:57:31;;;;;;;26.53;22.27;;;;;;;;;;2077958;28;20216;-54
2021/11/06 04:58:31;;;;;;;28.25;21.30;;;;;;;;;;2078958;28;20183;-56
2021/11/06 04:59:31;;;;;;;26.42;23.30;;;;;;;;;;2078214;28;20260;-55
2021/11/06 05:00:32;;;;;;;26.10;21.43;;;;;;;;;;2080509;28;20704;-52
2021/11/06 05:01:32;;;;;;;24.10;21.08;;;;;;;;;;2081203;28;20172;-54
2021/11/06 05:02:32;;;;;;;32.63;23.13;;;;;;;;;;2081321;28;20183;-56
2021/11/06 05:03:33;;;;;;;29.00;22.73;;;;;;;;;;2081432;28;20180;-56
2021/11/06 05:04:33;;;;;;;29.20;23.17;;;;;;;;;;2080862;28;20227;-53
2021/11/06 05:05:33;;;;;;;29.07;23.27;;;;;;;;;;2080786;28;20255;-53
2021/11/06 05:06:34;;;;;;;25.57;22.10;;;;;;;;;;2081303;28;20707;-57
2021/11/06 05:07:34;;;;;;;28.58;21.98;;;;;;;;;;2079491;28;20231;-53
2021/11/06 05:08:34;;;;;;;27.08;23.13;;;;;;;;;;2078970;28;20173;-56
2021/11/06 05:09:35;;;;;;;25.65;22.83;;;;;;;;;;2081042;28;20185;-55
2021/11/06 05:10:35;;;;;;;31.07;22.37;;;;;;;;;;2081145;28;20208;-56
2021/11/06 05:11:35;;;;;;;28.73;23.35;;;;;;;;;;2081657;28;20204;-53
2021/11/06 05:12:35;;;;;;;24.27;21.38;;;;;;;;;;2081217;28;20188;-54
2021/11/06 05:13:36;;;;;;;29.67;23.13;;;;;;;;;;2080529;28;20226;-57
2021/11/06 05:14:36;;;;;;;27.13;22.48;;;;;;;;;;2080259;28;20820;-55
2021/11/06 05:15:36;;;;;;;28.25;21.65;;;;;;;;;;2078149;28;20242;-55
2021/11/06 05:16:36;;;;;;;28.27;22.95;;;;;;;;;;2079195;28;20184;-57
2021/11/06 05:17:37;;;;;;;30.38;22.02;;;;;;;;;;2077202;28;20203;-57
2021/11/06 05:18:37;;;;;;;25.98;22.48;;;;;;;;;;2080440;28;20180;-58
2021/11/06 05:19:37;;;;;;;30.00;22.23;;;;;;;;;;2079714;28;20181;-57
2021/11/06 05:20:38;;;;;;;29.63;22.75;;;;;;;;;;2080127;28;20183;-56
2021/11/06 05:21:38;;;;;;;24.60;22.00;;;;;;;;;;2077874;28;20641;-57
2021/11/06 05:22:40;;;;;;;30.80;23.02;;;;;;;;;;2080565;28;20263;-57
2021/11/06 05:23:41;;;;;;;28.77;21.45;;;;;;;;;;2078234;28;20172;-56
2021/11/06 05:24:41;;;;;;;24.48;21.45;;;;;;;;;;2080159;28;20263;-56
2021/11/06 05:25:43;;;;;;;29.92;22.02;;;;;;;;;;2078101;28;20260;-56
2021/11/06 05:26:44;;;;;;;28.53;20.93;;;;;;;;;;2081374;28;20694;-57
2021/11/06 05:27:44;;;;;;;25.90;20.58;;;;;;;;;;2076566;28;20203;-56
2021/11/06 05:28:45;;;;;;;29.90;22.13;;;;;;;;;;2081650;28;20484;-57
2021/11/06 05:29:45;;;;;;;29.48;22.20;;;;;;;;;;2077744;28;20200;-57
2021/11/06 05:30:45;;;;;;;27.55;22.35;;;;;;;;;;2081618;28;20226;-56
2021/11/06 05:31:46;;;;;;;26.20;21.93;;;;;;;;;;2078121;28;20192;-55
2021/11/06 05:32:46;;;;;;;28.37;21.37;;;;;;;;;;2081508;28;20263;-56
2021/11/06 05:33:46;;;;;;;33.70;23.00;;;;;;;;;;2078308;28;20244;-56
2021/11/06 05:34:47;;;;;;;26.25;21.00;;;;;;;;;;2082110;28;20263;-57
2021/11/06 05:35:47;;;;;;;27.80;22.70;;;;;;;;;;2077571;28;20649;-56
2021/11/06 05:36:47;;;;;;;24.20;20.27;;;;;;;;;;2089461;28;20656;-54
2021/11/06 05:37:47;;;;;;;27.60;21.80;;;;;;;;;;2077572;28;20192;-56
2021/11/06 05:38:48;;;;;;;26.35;22.13;;;;;;;;;;2082013;28;20187;-56
2021/11/06 05:39:48;;;;;;;27.73;22.17;;;;;;;;;;2078493;28;20188;-56
2021/11/06 05:40:48;;;;;;;28.50;22.63;;;;;;;;;;2080615;28;20391;-55
2021/11/06 05:41:48;;;;;;;25.20;21.30;;;;;;;;;;2077655;28;20173;-57
2021/11/06 05:42:49;;;;;;;24.55;20.30;;;;;;;;;;2081919;28;20188;-55
2021/11/06 05:43:49;;;;;;;26.77;20.07;;;;;;;;;;2080237;28;20239;-52
2021/11/06 05:44:50;;;;;;;30.75;20.77;;;;;;;;;;2081423;28;20176;-59
2021/11/06 05:45:51;;;;;;;27.45;21.23;;;;;;;;;;2077347;28;20267;-53
2021/11/06 05:46:51;;;;;;;26.80;19.40;;;;;;;;;;2076500;28;20196;-52
2021/11/06 05:47:51;;;;;;;26.73;20.77;;;;;;;;;;2078082;28;20169;-53
2021/11/06 05:48:52;;;;;;;25.38;20.48;;;;;;;;;;2080289;28;20172;-54
2021/11/06 05:49:52;;;;;;;22.63;18.47;;;;;;;;;;2081180;28;20173;-56
2021/11/06 05:50:52;;;;;;;25.93;19.47;;;;;;;;;;2078426;28;20216;-54
2021/11/06 05:51:53;;;;;;;29.45;19.98;;;;;;;;;;2078210;28;20176;-56
2021/11/06 05:52:53;;;;;;;26.10;20.05;;;;;;;;;;2081170;28;20175;-56
2021/11/06 05:53:53;;;;;;;27.38;20.40;;;;;;;;;;2077411;28;20231;-57